This is the latest recevied weather packets stored in our database for station/object HS2LXA-WX. If no packets are shown the sender has not sent any weather packets the latest 10 day(s).
| Time | Temp. | Humidity | Pressure | Rain* | Wind** | Luminosity | Snow |
|---|---|---|---|---|---|---|---|
| 1778189309 | 30.56° C | 82% | 1013.2 hPa | 0 mm | - | - | - |
| 1778188706 | 30.56° C | 81% | 1013.2 hPa | 0 mm | - | - | - |
| 1778188106 | 30.56° C | 81% | 1013.1 hPa | 0 mm | - | - | - |
| 1778187507 | 30.56° C | 81% | 1013.2 hPa | 0 mm | - | - | - |
| 1778186905 | 30.56° C | 80% | 1013.1 hPa | 0 mm | - | - | - |
| 1778185787 | 30.56° C | 80% | 1013.2 hPa | 0 mm | - | - | - |
| 1778185187 | 30° C | 82% | 1013.2 hPa | 0 mm | - | - | - |
| 1778184587 | 30.56° C | 81% | 1013.2 hPa | 0 mm | - | - | - |
| 1778183987 | 31.11° C | 79% | 1013.1 hPa | 0 mm | - | - | - |
| 1778183387 | 31.11° C | 79% | 1013.1 hPa | 0 mm | - | - | - |
| 1778182787 | 31.11° C | 79% | 1013.2 hPa | 0 mm | - | - | - |
| 1778182186 | 31.11° C | 79% | 1013.1 hPa | 0 mm | - | - | - |
| 1778181587 | 30.56° C | 79% | 1013.1 hPa | 0 mm | - | - | - |
| 1778180986 | 31.11° C | 79% | 1013.2 hPa | 0 mm | - | - | - |
| 1778180386 | 31.11° C | 79% | 1013.1 hPa | 0 mm | - | - | - |
| 1778179093 | 31.11° C | 80% | 1013.1 hPa | 0 mm | - | - | - |
| 1778177791 | 30° C | 86% | 1013.2 hPa | 0 mm | - | - | - |
| 1778177192 | 30° C | 86% | 1013.2 hPa | 0 mm | - | - | - |
| 1778176591 | 30° C | 88% | 1013.1 hPa | 0 mm | - | - | - |
| 1778175990 | 30° C | 86% | 1013.1 hPa | 0 mm | - | - | - |
| 1778175111 | 30° C | 86% | 1013.1 hPa | 0 mm | - | - | - |
| 1778174511 | 30° C | 88% | 1013.1 hPa | 0 mm | - | - | - |
| 1778173911 | 29.44° C | 90% | 1013.2 hPa | 0 mm | - | - | - |
| 1778173311 | 30° C | 87% | 1013.1 hPa | 0 mm | - | - | - |
| 1778172587 | 30.56° C | 85% | 1013.1 hPa | 0 mm | - | - | - |
* Rain latest hour (hover to see other rain measurements)
** Current wind speed in m/s (hover to see current wind gust speed)